Startpagina
METAR-TAF:

METAR-TAF

Vliegvelden :

Irene, Zuid-Afrika

breedte: 25-54-36S, lengte: 28-12-40E, hoogte: 1523 m

Actueel weer

Dit bericht is 11 uur en het 52 minuten geleden gemaakt, om 07:27 UTC
Wind 6 kt uit het oostnoordoosten
Temperatuur 23°C
Vochtigheid 69%
Druk 1025 hPa
Zicht 10 km of meer
Gebroken wolken op 1500 ft

METAR: FAIR 180727Z 06006KT 9999 BKN015 23/17 Q1025

Tijdstip: 21:19 (19:19 UTC)


TAF: ontbreekt

Waarnemingen en weersverwachtingen van meer dan 4000 vliegvelden (METAR en TAF).

De beschikbare stations zijn de gele en rode punten op de kaart.

Ga met uw muis naar het station om de naam te zien.

Klik dan om waarnemingen en weersverwachtingen te zien.

kaart wijzigen: klik op de groene knoppen met een zwart kruis om in te zoomen, op de groene knop met een streepje om uit te zoomen of op de groene pijlen voor aangrenzende kaarten.


METAR-TAF: